Time;durP1;ratioP1;P1;durP2;ratioP2;P2;SDS_P1;SDS_P2;PMS_P1;PMS_P2;Temp;Humidity;BMP_temperature;BMP_pressure;BME280_temperature;BME280_humidity;BME280_pressure;Samples;Min_cycle;Max_cycle;Signal;HPM_P1;HPM_P2
2020/12/06 00:01:40;;;;;;;0.20;0.10;;;;;;;4.43;100.00;98666.25;5053674;28;20514;-56
2020/12/06 00:04:10;;;;;;;0.20;0.10;;;;;;;4.00;100.00;98648.25;5054247;28;20461;-53
2020/12/06 00:06:38;;;;;;;0.20;0.20;;;;;;;3.82;100.00;98653.09;5053886;28;20497;-52
2020/12/06 00:09:07;;;;;;;0.20;0.10;;;;;;;3.65;100.00;98652.72;5054274;28;20450;-54
2020/12/06 00:11:34;;;;;;;0.20;0.20;;;;;;;3.53;100.00;98645.16;5044454;28;20466;-55
2020/12/06 00:14:00;;;;;;;0.20;0.20;;;;;;;3.56;100.00;98660.81;5053772;28;20458;-56
2020/12/06 00:16:26;;;;;;;0.20;0.10;;;;;;;3.56;100.00;98659.09;5054127;28;20461;-56
2020/12/06 00:18:52;;;;;;;0.20;0.20;;;;;;;3.68;100.00;98655.25;5049670;28;20987;-56
2020/12/06 00:21:21;;;;;;;0.20;0.20;;;;;;;4.02;100.00;98649.06;5054705;28;20490;-55
2020/12/06 00:23:49;;;;;;;0.20;0.10;;;;;;;3.75;100.00;98640.19;5049197;28;20451;-55
2020/12/06 00:26:23;;;;;;;0.20;0.10;;;;;;;3.64;100.00;98658.88;5053372;28;20453;-55
2020/12/06 00:28:53;;;;;;;0.20;0.10;;;;;;;3.59;100.00;98681.78;5051794;28;20534;-55
2020/12/06 00:31:20;;;;;;;0.20;0.10;;;;;;;3.65;100.00;98681.59;5041372;28;20447;-55
2020/12/06 00:33:47;;;;;;;0.20;0.10;;;;;;;3.85;100.00;98666.19;5053605;28;20457;-55
2020/12/06 00:36:14;;;;;;;0.20;0.10;;;;;;;3.63;100.00;98670.28;5054080;28;20454;-55
2020/12/06 00:38:41;;;;;;;0.20;0.10;;;;;;;3.65;100.00;98660.59;5052139;28;20466;-55
2020/12/06 00:41:12;;;;;;;0.20;0.10;;;;;;;3.67;100.00;98661.41;5040270;28;20497;-54
2020/12/06 00:43:39;;;;;;;0.20;0.10;;;;;;;3.65;100.00;98691.25;5052166;28;20936;-55
2020/12/06 00:46:05;;;;;;;0.20;0.10;;;;;;;3.71;100.00;98707.72;5051153;28;20513;-54
2020/12/06 00:48:32;;;;;;;0.20;0.10;;;;;;;3.79;100.00;98694.38;5042174;28;20490;-55
2020/12/06 00:50:58;;;;;;;0.20;0.10;;;;;;;3.70;100.00;98689.34;5052491;28;20446;-55
2020/12/06 00:53:25;;;;;;;0.30;0.20;;;;;;;3.45;100.00;98663.75;5040101;28;20459;-55
2020/12/06 00:55:52;;;;;;;0.30;0.20;;;;;;;3.40;100.00;98634.09;5053210;28;20462;-55
2020/12/06 00:58:19;;;;;;;0.30;0.10;;;;;;;3.58;100.00;98653.78;5053166;28;20924;-54
2020/12/06 01:00:45;;;;;;;0.57;0.57;;;;;;;3.62;100.00;98668.56;5053050;28;20497;-55
2020/12/06 01:03:11;;;;;;;0.20;0.10;;;;;;;3.80;100.00;98678.56;5048624;28;20459;-55
2020/12/06 01:05:38;;;;;;;0.20;0.10;;;;;;;3.72;100.00;98666.56;5041630;28;20450;-54
2020/12/06 01:08:05;;;;;;;0.20;0.20;;;;;;;3.69;100.00;98641.19;5051717;28;20475;-55
2020/12/06 01:10:31;;;;;;;0.20;0.10;;;;;;;3.68;100.00;98646.50;5051221;28;20874;-55
2020/12/06 01:12:58;;;;;;;0.20;0.10;;;;;;;3.74;100.00;98659.50;5048938;28;20458;-55
2020/12/06 01:15:25;;;;;;;0.20;0.10;;;;;;;3.70;100.00;98657.81;5052367;28;20458;-55
2020/12/06 01:17:53;;;;;;;1.43;1.43;;;;;;;3.81;100.00;98655.78;5047809;28;20556;-55
2020/12/06 01:20:19;;;;;;;0.20;0.10;;;;;;;4.41;100.00;98678.59;5052503;28;20450;-54
2020/12/06 01:22:46;;;;;;;0.20;0.20;;;;;;;4.24;100.00;98681.69;5038565;28;21004;-54
2020/12/06 01:25:12;;;;;;;0.20;0.10;;;;;;;4.00;100.00;98692.94;5052253;28;20501;-54
2020/12/06 01:27:38;;;;;;;0.20;0.10;;;;;;;3.93;100.00;98694.84;5052288;28;20513;-54
2020/12/06 01:30:05;;;;;;;0.20;0.20;;;;;;;3.94;100.00;98688.69;5052285;28;20500;-55
2020/12/06 01:32:32;;;;;;;0.20;0.10;;;;;;;4.13;100.00;98681.16;5049729;28;20463;-54
2020/12/06 01:35:03;;;;;;;0.20;0.20;;;;;;;4.00;100.00;98677.16;5052024;28;20453;-54
2020/12/06 01:37:30;;;;;;;0.20;0.10;;;;;;;4.14;100.00;98653.97;5051632;28;20459;-55
2020/12/06 01:39:56;;;;;;;0.23;0.20;;;;;;;3.96;100.00;98639.56;5041301;28;20451;-55
2020/12/06 01:42:23;;;;;;;0.20;0.10;;;;;;;3.79;100.00;98653.19;5049678;28;20498;-54
2020/12/06 01:44:56;;;;;;;0.20;0.10;;;;;;;3.79;100.00;98650.56;5051831;28;20447;-55
2020/12/06 01:47:23;;;;;;;0.83;0.83;;;;;;;3.87;100.00;98658.25;5047455;28;20474;-54
2020/12/06 01:49:50;;;;;;;0.20;0.10;;;;;;;3.83;100.00;98667.09;5035059;28;20475;-55
2020/12/06 01:52:16;;;;;;;0.20;0.20;;;;;;;3.92;100.00;98674.75;5045931;28;20448;-54
2020/12/06 01:54:42;;;;;;;0.20;0.10;;;;;;;3.95;100.00;98679.03;5045223;28;20798;-56
2020/12/06 01:57:08;;;;;;;0.20;0.10;;;;;;;3.94;100.00;98672.91;5051874;28;20533;-56
2020/12/06 01:59:35;;;;;;;0.20;0.10;;;;;;;3.88;100.00;98685.38;5051997;28;20458;-55
2020/12/06 02:02:03;;;;;;;0.30;0.10;;;;;;;3.91;100.00;98696.66;5047870;28;20497;-56
2020/12/06 02:04:31;;;;;;;0.20;0.10;;;;;;;3.95;100.00;98705.31;5045691;28;20550;-55
2020/12/06 02:06:58;;;;;;;0.20;0.10;;;;;;;3.85;100.00;98705.59;5052087;28;20463;-55
2020/12/06 02:09:27;;;;;;;0.20;0.10;;;;;;;3.88;100.00;98688.88;5051558;28;20988;-55
2020/12/06 02:11:54;;;;;;;0.20;0.10;;;;;;;3.84;100.00;98682.84;5051744;28;20462;-54
2020/12/06 02:14:21;;;;;;;0.20;0.13;;;;;;;3.79;100.00;98676.84;5050455;28;20504;-54
2020/12/06 02:16:54;;;;;;;0.20;0.10;;;;;;;3.78;100.00;98661.97;5048041;28;20513;-55
2020/12/06 02:19:21;;;;;;;0.20;0.10;;;;;;;3.64;100.00;98644.88;5046524;28;20524;-55
2020/12/06 02:21:47;;;;;;;0.20;0.10;;;;;;;3.65;100.00;98649.22;5043198;28;20494;-55
2020/12/06 02:24:16;;;;;;;0.20;0.10;;;;;;;3.62;100.00;98665.94;5051369;28;20955;-54
2020/12/06 02:26:45;;;;;;;0.30;0.17;;;;;;;3.63;100.00;98669.41;5055446;28;20461;-53
2020/12/06 02:29:12;;;;;;;0.20;0.10;;;;;;;3.70;100.00;98676.22;5049616;28;20509;-54
2020/12/06 02:31:39;;;;;;;0.20;0.10;;;;;;;3.74;100.00;98675.25;5045552;28;20446;-53
2020/12/06 02:34:07;;;;;;;0.20;0.10;;;;;;;3.79;100.00;98670.72;5055585;28;20454;-53
2020/12/06 02:36:33;;;;;;;0.20;0.10;;;;;;;3.75;100.00;98671.72;5055245;28;20451;-54
2020/12/06 02:38:59;;;;;;;0.20;0.10;;;;;;;3.72;100.00;98661.31;5051100;28;20443;-54
2020/12/06 02:41:41;;;;;;;0.20;0.10;;;;;;;3.73;100.00;98668.28;5045413;28;20864;-56
2020/12/06 02:44:09;;;;;;;1.13;1.13;;;;;;;3.78;100.00;98677.75;5045610;28;20458;-54
2020/12/06 02:46:37;;;;;;;0.20;0.20;;;;;;;3.85;100.00;98676.69;5053909;28;20463;-54
2020/12/06 02:49:04;;;;;;;0.20;0.10;;;;;;;3.78;100.00;98671.63;5054839;28;20807;-56
2020/12/06 02:51:31;;;;;;;0.20;0.20;;;;;;;3.79;100.00;98673.34;5055431;28;20462;-55
2020/12/06 02:53:58;;;;;;;0.20;0.20;;;;;;;3.84;100.00;98666.22;5054248;22;20510;-81
2020/12/06 02:56:25;;;;;;;0.20;0.10;;;;;;;3.70;100.00;98656.09;5032859;28;20459;-80
2020/12/06 02:58:51;;;;;;;0.20;0.10;;;;;;;3.64;100.00;98652.75;5033611;28;20468;-81
2020/12/06 03:01:17;;;;;;;0.20;0.10;;;;;;;3.78;100.00;98659.34;5035361;28;20482;-81
2020/12/06 03:03:44;;;;;;;0.20;0.10;;;;;;;3.74;100.00;98648.97;5041069;28;20455;-81
2020/12/06 03:06:10;;;;;;;0.20;0.10;;;;;;;3.74;100.00;98646.34;5040839;28;20482;-79
2020/12/06 03:08:37;;;;;;;0.20;0.10;;;;;;;3.69;100.00;98628.06;5036817;28;20455;-79
2020/12/06 03:11:06;;;;;;;0.20;0.10;;;;;;;3.72;100.00;98632.41;5026501;28;20541;-79
2020/12/06 03:13:33;;;;;;;0.20;0.10;;;;;;;3.68;100.00;98628.97;5035535;28;20946;-79
2020/12/06 03:15:59;;;;;;;0.20;0.20;;;;;;;3.75;100.00;98622.66;5039760;28;20486;-79
2020/12/06 03:18:25;;;;;;;0.20;0.10;;;;;;;3.71;100.00;98607.88;5021007;28;20466;-78
2020/12/06 03:20:51;;;;;;;0.20;0.10;;;;;;;3.54;100.00;98589.09;5020428;28;20885;-78
2020/12/06 03:23:17;;;;;;;0.30;0.20;;;;;;;3.61;100.00;98585.41;5034934;28;20456;-78
2020/12/06 03:25:44;;;;;;;0.20;0.10;;;;;;;3.73;100.00;98587.69;5034155;28;20443;-78
2020/12/06 03:28:10;;;;;;;0.20;0.10;;;;;;;3.64;100.00;98595.81;5015550;28;20529;-78
2020/12/06 03:30:36;;;;;;;0.20;0.10;;;;;;;3.61;100.00;98600.31;5026523;28;20988;-78
2020/12/06 03:33:02;;;;;;;0.20;0.10;;;;;;;3.68;100.00;98592.19;5028369;28;20453;-78
2020/12/06 03:35:28;;;;;;;0.20;0.10;;;;;;;3.72;100.00;98577.22;5014027;28;20448;-78
2020/12/06 03:37:54;;;;;;;0.70;0.70;;;;;;;3.64;100.00;98589.69;5051060;28;20451;-78
2020/12/06 03:40:20;;;;;;;0.20;0.10;;;;;;;3.77;100.00;98606.84;5025512;28;20527;-78
2020/12/06 03:42:50;;;;;;;0.20;0.10;;;;;;;3.90;100.00;98615.25;5034263;28;20499;-80
2020/12/06 03:45:17;;;;;;;0.20;0.10;;;;;;;3.91;100.00;98625.72;5036197;28;20458;-80
2020/12/06 03:47:43;;;;;;;0.20;0.10;;;;;;;4.13;100.00;98615.44;5035717;28;20835;-80
2020/12/06 03:50:10;;;;;;;0.20;0.10;;;;;;;4.03;100.00;98625.34;5035338;28;21003;-80
2020/12/06 03:52:37;;;;;;;0.20;0.10;;;;;;;3.93;100.00;98628.28;5035435;28;20876;-80
2020/12/06 03:55:04;;;;;;;0.20;0.10;;;;;;;3.96;100.00;98617.69;5035514;28;20429;-80
2020/12/06 03:57:30;;;;;;;0.20;0.10;;;;;;;4.01;100.00;98594.78;5036232;28;20447;-80
2020/12/06 03:59:56;;;;;;;0.30;0.27;;;;;;;3.99;100.00;98588.69;5036252;28;21031;-80
2020/12/06 04:02:23;;;;;;;0.20;0.10;;;;;;;4.11;100.00;98583.94;5037029;28;20487;-80
2020/12/06 04:04:49;;;;;;;0.20;0.10;;;;;;;4.01;100.00;98598.25;5036416;28;20448;-80
2020/12/06 04:07:15;;;;;;;0.20;0.10;;;;;;;3.94;100.00;98593.22;5035073;28;20562;-80
2020/12/06 04:09:41;;;;;;;0.30;0.10;;;;;;;3.97;100.00;98596.59;5035097;28;20474;-80
2020/12/06 04:12:08;;;;;;;0.20;0.10;;;;;;;4.12;100.00;98592.69;5035309;28;20448;-80
2020/12/06 04:14:34;;;;;;;0.20;0.10;;;;;;;4.03;100.00;98582.44;5036083;28;20950;-80
2020/12/06 04:17:00;;;;;;;0.20;0.20;;;;;;;3.94;100.00;98559.03;5035132;28;20452;-80
2020/12/06 04:19:26;;;;;;;0.20;0.20;;;;;;;4.11;100.00;98565.53;5034960;28;20476;-80
2020/12/06 04:21:52;;;;;;;0.20;0.17;;;;;;;3.99;100.00;98551.91;5025463;28;20495;-80
2020/12/06 04:24:18;;;;;;;2.57;2.57;;;;;;;4.01;100.00;98552.72;5016635;28;20499;-79
2020/12/06 04:26:44;;;;;;;0.20;0.10;;;;;;;3.97;100.00;98549.28;5035980;28;20501;-79
2020/12/06 04:29:10;;;;;;;0.27;0.17;;;;;;;4.05;100.00;98546.44;5035769;28;20472;-80
2020/12/06 04:31:37;;;;;;;0.20;0.10;;;;;;;4.09;100.00;98567.31;5026975;28;20452;-80
2020/12/06 04:34:03;;;;;;;0.20;0.10;;;;;;;4.07;100.00;98576.16;5014610;28;20463;-80
2020/12/06 04:36:29;;;;;;;0.20;0.20;;;;;;;4.09;100.00;98579.59;5023503;28;20467;-80
2020/12/06 04:38:55;;;;;;;0.20;0.10;;;;;;;4.10;100.00;98579.56;5034802;28;20893;-79
2020/12/06 04:41:23;;;;;;;0.20;0.10;;;;;;;4.05;100.00;98592.00;5025256;28;20550;-80
2020/12/06 04:43:49;;;;;;;0.20;0.10;;;;;;;4.12;100.00;98585.66;5033699;28;20992;-80
2020/12/06 04:46:18;;;;;;;0.20;0.10;;;;;;;4.07;100.00;98584.91;5035695;28;20453;-80
2020/12/06 04:49:04;;;;;;;0.20;0.20;;;;;;;4.12;100.00;98597.94;5014842;28;20460;-80
2020/12/06 04:51:39;;;;;;;0.20;0.13;;;;;;;4.13;100.00;98600.53;5027700;28;20451;-79
2020/12/06 04:54:05;;;;;;;0.20;0.10;;;;;;;4.05;100.00;98607.75;5014874;28;20479;-79
2020/12/06 04:56:32;;;;;;;0.20;0.10;;;;;;;4.04;100.00;98607.81;5016455;28;20470;-79
2020/12/06 04:59:02;;;;;;;0.20;0.10;;;;;;;4.08;100.00;98604.19;5026366;28;21008;-79
2020/12/06 05:01:36;;;;;;;0.20;0.10;;;;;;;4.08;100.00;98606.81;5028533;28;20561;-79
2020/12/06 05:04:15;;;;;;;0.20;0.13;;;;;;;4.05;100.00;98602.50;5035654;28;20451;-80
2020/12/06 05:06:44;;;;;;;0.20;0.10;;;;;;;4.11;100.00;98606.72;5018368;28;20451;-80
2020/12/06 05:09:13;;;;;;;0.30;0.20;;;;;;;4.27;100.00;98602.75;5035185;28;20464;-80
2020/12/06 05:11:40;;;;;;;0.20;0.10;;;;;;;4.09;100.00;98591.00;5028753;28;20465;-80
2020/12/06 05:14:07;;;;;;;0.20;0.17;;;;;;;4.00;100.00;98580.78;5033171;28;20444;-80
2020/12/06 05:16:34;;;;;;;0.20;0.20;;;;;;;4.39;100.00;98567.31;5030491;28;20441;-80
2020/12/06 05:19:05;;;;;;;0.30;0.10;;;;;;;4.40;100.00;98564.63;5014178;28;20475;-80
2020/12/06 05:21:36;;;;;;;0.20;0.10;;;;;;;4.45;100.00;98557.44;5027352;28;20492;-80
2020/12/06 05:24:02;;;;;;;0.30;0.20;;;;;;;4.25;100.00;98559.84;5013967;28;20506;-80
2020/12/06 05:26:29;;;;;;;0.20;0.10;;;;;;;4.16;100.00;98560.13;5026620;28;20464;-80
2020/12/06 05:28:57;;;;;;;0.20;0.20;;;;;;;4.13;100.00;98563.72;5013671;28;20852;-80
2020/12/06 05:31:23;;;;;;;0.20;0.10;;;;;;;4.07;100.00;98557.78;5015261;28;20445;-80
2020/12/06 05:33:50;;;;;;;0.20;0.20;;;;;;;4.07;100.00;98547.25;5027104;28;20452;-80
2020/12/06 05:36:17;;;;;;;0.20;0.10;;;;;;;4.02;100.00;98536.88;5037052;28;20447;-80
2020/12/06 05:38:43;;;;;;;0.20;0.10;;;;;;;4.02;100.00;98520.25;5052402;28;20451;-80
2020/12/06 05:41:09;;;;;;;0.30;0.30;;;;;;;4.07;100.00;98524.44;5025241;28;20464;-80
2020/12/06 05:43:36;;;;;;;0.20;0.10;;;;;;;3.98;100.00;98510.75;5018371;28;20499;-80
2020/12/06 05:46:07;;;;;;;0.20;0.10;;;;;;;4.01;100.00;98522.03;5026325;28;20464;-80
2020/12/06 05:48:34;;;;;;;0.20;0.20;;;;;;;4.02;100.00;98534.25;5028596;28;20460;-80
2020/12/06 05:51:01;;;;;;;0.20;0.10;;;;;;;4.05;100.00;98549.06;5034476;28;20468;-80
2020/12/06 05:53:29;;;;;;;0.20;0.20;;;;;;;4.17;100.00;98575.00;5020127;28;20502;-80
2020/12/06 05:56:11;;;;;;;0.20;0.10;;;;;;;4.19;100.00;98574.94;5020584;28;20498;-80
2020/12/06 05:58:39;;;;;;;0.20;0.10;;;;;;;4.14;100.00;98578.59;5025686;28;20917;-79
2020/12/06 06:01:06;;;;;;;0.20;0.20;;;;;;;4.10;100.00;98578.69;5039962;28;20517;-79
2020/12/06 06:03:35;;;;;;;0.30;0.20;;;;;;;4.02;100.00;98568.44;5021120;28;20448;-79
2020/12/06 06:06:07;;;;;;;0.20;0.10;;;;;;;4.00;100.00;98551.00;5031248;28;20450;-80
2020/12/06 06:08:36;;;;;;;1.03;1.03;;;;;;;3.98;100.00;98532.66;5020287;28;20444;-80
2020/12/06 06:11:22;;;;;;;0.30;0.30;;;;;;;3.99;100.00;98507.22;5023399;28;20495;-80
2020/12/06 06:14:04;;;;;;;0.20;0.13;;;;;;;3.96;100.00;98515.16;5039819;28;20455;-79
2020/12/06 06:16:32;;;;;;;0.20;0.10;;;;;;;3.96;100.00;98523.91;5022330;28;20467;-80
2020/12/06 06:19:01;;;;;;;0.20;0.10;;;;;;;4.06;100.00;98535.03;5019264;28;20534;-80
2020/12/06 06:21:40;;;;;;;0.20;0.10;;;;;;;4.11;100.00;98548.88;5018952;28;20992;-80
2020/12/06 06:24:09;;;;;;;0.20;0.10;;;;;;;4.09;100.00;98529.66;5034228;28;20455;-80
2020/12/06 06:26:40;;;;;;;1.30;1.20;;;;;;;4.13;100.00;98532.16;5030933;28;20452;-80
2020/12/06 06:29:14;;;;;;;0.20;0.10;;;;;;;4.07;100.00;98534.09;5031930;28;20463;-80
2020/12/06 06:31:42;;;;;;;0.20;0.10;;;;;;;4.12;100.00;98527.81;5020519;28;20452;-80
2020/12/06 06:34:09;;;;;;;0.20;0.10;;;;;;;4.11;100.00;98523.47;5036335;28;20452;-79
2020/12/06 06:36:36;;;;;;;0.20;0.20;;;;;;;4.10;100.00;98518.22;5038621;28;20577;-79
2020/12/06 06:39:05;;;;;;;0.40;0.40;;;;;;;4.09;100.00;98524.41;5050581;28;20507;-79
2020/12/06 06:41:33;;;;;;;0.20;0.10;;;;;;;4.09;100.00;98529.66;5029090;28;20546;-79
2020/12/06 06:44:01;;;;;;;0.20;0.10;;;;;;;4.09;100.00;98529.66;5049482;28;20456;-79
2020/12/06 06:46:32;;;;;;;0.20;0.10;;;;;;;4.13;100.00;98537.44;5044109;28;20448;-79
2020/12/06 06:49:08;;;;;;;0.20;0.10;;;;;;;4.21;100.00;98521.41;5025043;28;20471;-79
2020/12/06 06:51:35;;;;;;;0.20;0.10;;;;;;;4.14;100.00;98525.13;5039785;28;20455;-78
2020/12/06 06:54:05;;;;;;;1.50;1.50;;;;;;;4.13;100.00;98539.19;5037360;28;20906;-79
2020/12/06 06:56:47;;;;;;;0.20;0.10;;;;;;;4.11;100.00;98533.09;5025928;28;20476;-79
2020/12/06 06:59:13;;;;;;;0.20;0.20;;;;;;;4.12;100.00;98538.34;5018243;28;20476;-79
2020/12/06 07:01:47;;;;;;;0.20;0.10;;;;;;;4.19;100.00;98540.75;5018732;28;20487;-79
2020/12/06 07:04:19;;;;;;;0.20;0.20;;;;;;;4.25;100.00;98541.44;5019665;28;20452;-79
2020/12/06 07:06:48;;;;;;;0.20;0.10;;;;;;;4.22;100.00;98538.03;5015744;28;20467;-78
2020/12/06 07:09:26;;;;;;;0.20;0.10;;;;;;;4.31;100.00;98558.78;5021561;28;20550;-79
2020/12/06 07:11:54;;;;;;;0.20;0.20;;;;;;;4.29;100.00;98557.97;5026739;28;20897;-79
2020/12/06 07:14:25;;;;;;;0.20;0.13;;;;;;;4.32;100.00;98563.13;5040161;28;20458;-79
2020/12/06 07:16:56;;;;;;;1.83;1.67;;;;;;;4.33;100.00;98560.47;5015642;28;20831;-79
2020/12/06 07:19:23;;;;;;;0.20;0.10;;;;;;;4.26;100.00;98552.81;5032800;28;20467;-79
2020/12/06 07:21:50;;;;;;;0.20;0.10;;;;;;;4.31;100.00;98579.81;5036232;28;20900;-80
2020/12/06 07:24:18;;;;;;;0.20;0.20;;;;;;;4.36;100.00;98583.16;5022704;28;20465;-80
2020/12/06 07:26:46;;;;;;;0.20;0.10;;;;;;;4.37;100.00;98572.59;5035727;28;20467;-80
2020/12/06 07:29:13;;;;;;;0.20;0.10;;;;;;;4.41;100.00;98578.66;5035283;28;20467;-80
2020/12/06 07:31:40;;;;;;;0.20;0.10;;;;;;;4.38;100.00;98568.19;5037019;28;20444;-79
2020/12/06 07:34:06;;;;;;;0.20;0.10;;;;;;;4.31;100.00;98571.94;5036773;28;20465;-79
2020/12/06 07:36:34;;;;;;;0.20;0.10;;;;;;;4.35;100.00;98573.56;5043867;28;20538;-80
2020/12/06 07:39:12;;;;;;;0.20;0.10;;;;;;;4.34;100.00;98562.19;5046942;28;20840;-79
2020/12/06 07:41:49;;;;;;;0.20;0.17;;;;;;;4.35;100.00;98558.63;5027024;28;20502;-79
2020/12/06 07:44:16;;;;;;;0.20;0.13;;;;;;;4.38;100.00;98553.28;5036480;28;20448;-80
2020/12/06 07:46:43;;;;;;;0.90;0.90;;;;;;;4.43;100.00;98555.78;5034842;28;20448;-80
2020/12/06 07:49:10;;;;;;;0.20;0.13;;;;;;;4.40;100.00;98559.38;5015655;28;20551;-79
2020/12/06 07:51:36;;;;;;;0.20;0.10;;;;;;;4.37;100.00;98556.81;5016780;28;20518;-78
2020/12/06 07:54:03;;;;;;;0.20;0.20;;;;;;;4.40;100.00;98551.47;5020412;28;20471;-79
2020/12/06 07:56:30;;;;;;;0.20;0.13;;;;;;;4.24;100.00;98562.50;5022840;28;20449;-80
2020/12/06 07:59:14;;;;;;;0.20;0.10;;;;;;;4.44;100.00;98583.81;5016776;28;20480;-80
2020/12/06 08:01:42;;;;;;;0.20;0.10;;;;;;;4.45;100.00;98591.63;5019832;28;20542;-80
2020/12/06 08:04:25;;;;;;;0.20;0.10;;;;;;;4.51;100.00;98592.34;5016676;28;20444;-80
2020/12/06 08:06:58;;;;;;;0.20;0.10;;;;;;;4.32;100.00;98577.16;5028361;28;20440;-80
2020/12/06 08:09:28;;;;;;;0.20;0.20;;;;;;;4.40;100.00;98569.03;5014997;28;20483;-80
2020/12/06 08:12:00;;;;;;;0.20;0.20;;;;;;;4.34;100.00;98546.41;5016043;28;20440;-80
2020/12/06 08:14:30;;;;;;;0.20;0.10;;;;;;;4.32;100.00;98553.47;5029970;28;20940;-80
2020/12/06 08:16:59;;;;;;;0.40;0.40;;;;;;;4.45;100.00;98567.09;5034622;28;20940;-80
2020/12/06 08:19:26;;;;;;;0.23;0.13;;;;;;;4.47;100.00;98575.81;5021097;28;20483;-80
2020/12/06 08:22:03;;;;;;;0.20;0.10;;;;;;;4.49;100.00;98568.72;5024437;28;20586;-80
2020/12/06 08:24:31;;;;;;;0.20;0.20;;;;;;;4.49;100.00;98571.34;5039233;28;20436;-80
2020/12/06 08:26:59;;;;;;;0.20;0.10;;;;;;;4.33;100.00;98555.19;5023861;28;20464;-80
2020/12/06 08:29:40;;;;;;;0.20;0.10;;;;;;;4.54;100.00;98572.09;5014435;28;20469;-80
2020/12/06 08:32:07;;;;;;;0.20;0.10;;;;;;;4.45;100.00;98570.59;5025780;28;20462;-80
2020/12/06 08:34:34;;;;;;;0.20;0.10;;;;;;;4.50;100.00;98569.59;5029805;28;20915;-80
2020/12/06 08:37:17;;;;;;;0.37;0.37;;;;;;;4.55;100.00;98584.31;5033988;28;20477;-80
2020/12/06 08:39:45;;;;;;;0.20;0.20;;;;;;;4.51;100.00;98563.41;5045994;28;20471;-79
2020/12/06 08:42:19;;;;;;;0.30;0.10;;;;;;;4.50;100.00;98554.66;5031735;28;20496;-80
2020/12/06 08:44:52;;;;;;;0.20;0.20;;;;;;;4.57;100.00;98552.69;5025388;28;20452;-80
2020/12/06 08:47:18;;;;;;;0.20;0.20;;;;;;;4.57;100.00;98558.81;5028441;28;20953;-80
2020/12/06 08:50:02;;;;;;;0.20;0.10;;;;;;;4.61;100.00;98572.72;5026681;28;20488;-79
2020/12/06 08:52:29;;;;;;;0.30;0.10;;;;;;;4.65;100.00;98585.72;5034278;28;20474;-80
2020/12/06 08:54:55;;;;;;;0.20;0.10;;;;;;;4.55;100.00;98588.72;5033766;28;20448;-79
2020/12/06 08:57:27;;;;;;;0.20;0.20;;;;;;;4.63;100.00;98591.97;5037217;28;20456;-80
2020/12/06 08:59:54;;;;;;;0.20;0.20;;;;;;;4.65;100.00;98584.88;5039273;28;20456;-80
2020/12/06 09:02:24;;;;;;;0.20;0.20;;;;;;;4.66;100.00;98587.47;5038601;28;20494;-81
2020/12/06 09:04:51;;;;;;;0.20;0.20;;;;;;;4.63;100.00;98590.19;5038999;28;20944;-80
2020/12/06 09:07:18;;;;;;;0.20;0.20;;;;;;;4.59;100.00;98578.06;5028997;28;20464;-81
2020/12/06 09:09:45;;;;;;;0.20;0.10;;;;;;;4.78;100.00;98604.63;5023704;28;20479;-80
2020/12/06 09:12:11;;;;;;;0.40;0.40;;;;;;;4.76;100.00;98594.16;5037689;28;20448;-81
2020/12/06 09:14:37;;;;;;;0.20;0.10;;;;;;;4.86;100.00;98602.59;5036214;28;20460;-81
2020/12/06 09:17:04;;;;;;;0.20;0.20;;;;;;;4.91;100.00;98594.56;5018817;28;20844;-81
2020/12/06 09:19:30;;;;;;;0.20;0.10;;;;;;;4.92;100.00;98591.00;5023797;28;20983;-80
2020/12/06 09:21:57;;;;;;;0.30;0.20;;;;;;;4.97;100.00;98589.09;5026327;28;20506;-81
2020/12/06 09:24:23;;;;;;;0.20;0.10;;;;;;;5.01;100.00;98588.94;5038251;28;20471;-80
2020/12/06 09:26:49;;;;;;;0.30;0.10;;;;;;;5.03;100.00;98589.75;5040589;28;20452;-80
2020/12/06 09:29:15;;;;;;;0.30;0.30;;;;;;;5.03;100.00;98583.63;5033719;28;20840;-80
2020/12/06 09:31:42;;;;;;;0.50;0.50;;;;;;;5.05;100.00;98577.38;5027427;28;20498;-80
2020/12/06 09:34:09;;;;;;;0.30;0.20;;;;;;;5.13;100.00;98561.34;5035225;28;20471;-80
2020/12/06 09:36:40;;;;;;;0.20;0.20;;;;;;;4.91;100.00;98552.44;5032550;28;20464;-80
2020/12/06 09:39:06;;;;;;;0.20;0.20;;;;;;;4.89;100.00;98560.38;5032833;28;20487;-80
2020/12/06 09:41:33;;;;;;;0.20;0.20;;;;;;;4.88;100.00;98550.78;5033104;28;20862;-80
2020/12/06 09:43:59;;;;;;;0.30;0.20;;;;;;;4.96;100.00;98564.53;5033956;28;20462;-80
2020/12/06 09:46:25;;;;;;;0.20;0.20;;;;;;;5.02;100.00;98543.25;5022328;28;20452;-80
2020/12/06 09:48:51;;;;;;;0.20;0.10;;;;;;;5.02;100.00;98559.06;5013258;28;20449;-80
2020/12/06 09:51:17;;;;;;;0.20;0.10;;;;;;;5.02;100.00;98550.31;5022686;28;20464;-80
2020/12/06 09:53:48;;;;;;;0.20;0.20;;;;;;;5.01;100.00;98559.13;5015267;28;20456;-80
2020/12/06 09:56:14;;;;;;;0.20;0.17;;;;;;;5.04;100.00;98561.63;5013782;28;20441;-79
2020/12/06 09:58:40;;;;;;;0.20;0.20;;;;;;;5.08;100.00;98570.31;5012236;28;20448;-79
2020/12/06 10:01:06;;;;;;;0.20;0.20;;;;;;;5.18;100.00;98571.69;5012167;28;20456;-79
2020/12/06 10:03:32;;;;;;;0.30;0.20;;;;;;;5.10;100.00;98547.41;5011620;28;20615;-80
2020/12/06 10:05:58;;;;;;;0.30;0.20;;;;;;;5.06;100.00;98546.63;5012240;28;20511;-80
2020/12/06 10:08:26;;;;;;;0.20;0.10;;;;;;;5.09;100.00;98549.19;5041667;28;20460;-80
2020/12/06 10:10:52;;;;;;;0.20;0.20;;;;;;;5.13;100.00;98547.31;5025625;28;20487;-79
2020/12/06 10:13:18;;;;;;;0.30;0.20;;;;;;;5.15;100.00;98550.75;5032011;28;20452;-80
2020/12/06 10:15:45;;;;;;;0.20;0.10;;;;;;;5.21;100.00;98558.44;5019470;28;20448;-79
2020/12/06 10:18:11;;;;;;;0.20;0.10;;;;;;;5.21;100.00;98567.22;5011837;28;20511;-79
2020/12/06 10:20:37;;;;;;;0.20;0.10;;;;;;;5.27;100.00;98569.63;5023332;28;20498;-79
2020/12/06 10:23:03;;;;;;;0.20;0.20;;;;;;;5.29;100.00;98559.88;5024992;28;20580;-80
2020/12/06 10:25:29;;;;;;;1.80;1.60;;;;;;;5.21;100.00;98551.41;5014043;28;20452;-81
2020/12/06 10:27:56;;;;;;;0.20;0.10;;;;;;;5.30;100.00;98560.72;5013470;28;20999;-80
2020/12/06 10:30:22;;;;;;;0.20;0.10;;;;;;;5.32;100.00;98565.03;5024786;28;20471;-80
2020/12/06 10:32:48;;;;;;;2.77;2.57;;;;;;;5.32;100.00;98562.41;5033172;28;20436;-80
2020/12/06 10:35:14;;;;;;;0.20;0.20;;;;;;;5.26;100.00;98567.91;5032392;28;20487;-80
2020/12/06 10:37:40;;;;;;;0.20;0.20;;;;;;;5.34;100.00;98572.88;5037148;28;20513;-80
2020/12/06 10:40:07;;;;;;;0.20;0.10;;;;;;;5.28;100.00;98565.19;5036547;28;20467;-80
2020/12/06 10:42:33;;;;;;;0.20;0.20;;;;;;;5.25;100.00;98560.06;5036752;28;20897;-80
2020/12/06 10:44:59;;;;;;;0.20;0.10;;;;;;;5.22;100.00;98544.38;5038263;28;20456;-80
2020/12/06 10:47:25;;;;;;;0.20;0.10;;;;;;;5.23;100.00;98548.72;5017861;28;20861;-80
2020/12/06 10:49:52;;;;;;;0.20;0.10;;;;;;;5.19;100.00;98545.31;5030145;28;20507;-80
2020/12/06 10:52:18;;;;;;;0.20;0.20;;;;;;;5.26;100.00;98538.91;5017920;28;20498;-80
2020/12/06 10:54:46;;;;;;;0.30;0.20;;;;;;;5.28;100.00;98538.88;5017081;28;20947;-80
2020/12/06 10:57:12;;;;;;;0.30;0.20;;;;;;;5.29;100.00;98545.84;5024865;28;20600;-80
2020/12/06 10:59:38;;;;;;;0.30;0.30;;;;;;;5.27;100.00;98545.03;5023532;28;20523;-80
2020/12/06 11:02:05;;;;;;;0.20;0.10;;;;;;;5.35;100.00;98540.38;5016463;28;20484;-80
2020/12/06 11:04:31;;;;;;;0.20;0.20;;;;;;;5.35;100.00;98520.16;5030453;28;20517;-80
2020/12/06 11:06:58;;;;;;;0.20;0.10;;;;;;;5.49;100.00;98548.66;5030950;28;21000;-80
2020/12/06 11:09:25;;;;;;;0.20;0.20;;;;;;;5.55;100.00;98540.50;5036265;28;20467;-81
2020/12/06 11:11:52;;;;;;;0.30;0.20;;;;;;;5.61;100.00;98539.41;5021122;28;20510;-80
2020/12/06 11:14:19;;;;;;;0.27;0.20;;;;;;;5.65;100.00;98543.66;5020148;28;20503;-80
2020/12/06 11:16:49;;;;;;;0.20;0.10;;;;;;;5.64;100.00;98560.41;5016479;28;20514;-80
2020/12/06 11:19:15;;;;;;;0.23;0.20;;;;;;;5.72;100.00;98545.16;5030377;28;20472;-79
2020/12/06 11:21:41;;;;;;;0.30;0.20;;;;;;;5.58;100.00;98531.63;5029596;28;20506;-80
2020/12/06 11:24:07;;;;;;;1.40;0.83;;;;;;;5.67;100.00;98535.69;5016726;28;20449;-80
2020/12/06 11:26:34;;;;;;;0.20;0.10;;;;;;;5.68;100.00;98513.69;5018122;28;20823;-79
2020/12/06 11:29:01;;;;;;;0.20;0.20;;;;;;;5.69;100.00;98516.28;5017717;28;20472;-79
2020/12/06 11:31:27;;;;;;;0.20;0.10;;;;;;;5.68;100.00;98511.91;5016307;28;20459;-79
2020/12/06 11:33:53;;;;;;;0.30;0.13;;;;;;;5.65;100.00;98502.34;5017219;28;20502;-79
2020/12/06 11:38:45;;;;;;;0.30;0.20;;;;;;;5.72;100.00;98516.16;5005960;22;20936;-51
2020/12/06 11:41:12;;;;;;;0.20;0.20;;;;;;;5.67;100.00;98512.84;4999849;28;20262;-50